Terminal Aerodrome Forecast
Issued by NWS

Home | Current Version | Previous Version | Text Only | Print | Product List | Glossary On
Versions: 1 2 3 4 5 6 7 8 9 10 11 12 13 14 15 16 17 18 19 20 21 22 23 24 25 26 27 28 29 30 31 32 33 34 35 36 37
000
FTUS45 KPSR 312335
TAFSDL
TAF
KSDL 312335Z 0100/0124 23008KT P6SM FEW100 FEW150 SCT250
     FM010300 16011KT P6SM VCTS SCT100CB BKN150 BKN200
     FM010600 VRB05KT P6SM VCSH SCT090 BKN120
     FM011000 VRB03KT P6SM SCT080 BKN200=

USA.gov is the U.S. government's official web portal to all federal, state and local government web resources and services.